Terminal Aerodrome Forecast
Issued by NWS

Home | Current Version | Previous Version | Text Only | Print | Product List | Glossary On
Versions: 1 2 3 4 5 6 7 8 9 10 11 12 13 14 15 16 17 18 19 20
644
FTUS42 TJSJ 281621 AAA
TAFJSJ
TAF AMD
TJSJ 281621Z 2816/2912 18010KT P6SM VCTS SCT020CB BKN040
      TEMPO 2816/2818 3SM +SHRA BKN025 OVC050
     FM282200 VRB06KT P6SM VCSH FEW025 SCT040 SCT060=

USA.gov is the U.S. government's official web portal to all federal, state and local government web resources and services.